Terminal Aerodrome Forecast
Issued by NWS

Home | Current Version | Previous Version | Text Only | Print | Product List | Glossary On
Versions: 1 2 3 4 5 6 7 8 9 10 11 12 13 14 15 16 17 18 19 20
000
FTUS44 KMAF 201100
TAFPEQ
TAF
KPEQ 201134Z 2012/2112 VRB04KT P6SM SCT040 BKN050 OVC100
      TEMPO 2012/2016 BKN020
     FM201600 10006KT P6SM BKN050 OVC100
      TEMPO 2020/2024 6SM TSRA BKN040CB
     FM210000 10006KT P6SM BKN050 OVC100
      TEMPO 2100/2104 6SM TSRA BKN040CB=

USA.gov is the U.S. government's official web portal to all federal, state and local government web resources and services.